sensor_id;sensor_type;location;lat;lon;timestamp;temperature;humidity
9375;DHT22;4727;51.202;6.344;2023-07-30T00:01:14;16.00;99.90
9375;DHT22;4727;51.202;6.344;2023-07-30T00:03:40;16.00;99.90
9375;DHT22;4727;51.202;6.344;2023-07-30T00:06:06;15.90;99.90
9375;DHT22;4727;51.202;6.344;2023-07-30T00:08:31;15.90;99.90
9375;DHT22;4727;51.202;6.344;2023-07-30T00:10:57;15.80;99.90
9375;DHT22;4727;51.202;6.344;2023-07-30T00:13:24;15.80;99.90
9375;DHT22;4727;51.202;6.344;2023-07-30T00:15:49;15.80;99.90
9375;DHT22;4727;51.202;6.344;2023-07-30T00:18:16;15.80;99.90
9375;DHT22;4727;51.202;6.344;2023-07-30T00:20:42;15.80;99.90
9375;DHT22;4727;51.202;6.344;2023-07-30T00:23:07;15.80;99.90
9375;DHT22;4727;51.202;6.344;2023-07-30T00:25:33;15.80;99.90
9375;DHT22;4727;51.202;6.344;2023-07-30T00:27:58;15.70;99.90
9375;DHT22;4727;51.202;6.344;2023-07-30T00:30:24;15.70;99.90
9375;DHT22;4727;51.202;6.344;2023-07-30T00:32:50;15.70;99.90
9375;DHT22;4727;51.202;6.344;2023-07-30T00:35:16;15.70;99.90
9375;DHT22;4727;51.202;6.344;2023-07-30T00:37:42;15.60;99.90
9375;DHT22;4727;51.202;6.344;2023-07-30T00:40:08;16.40;99.90
9375;DHT22;4727;51.202;6.344;2023-07-30T00:42:33;15.60;99.90
9375;DHT22;4727;51.202;6.344;2023-07-30T00:44:59;16.40;99.90
9375;DHT22;4727;51.202;6.344;2023-07-30T00:47:25;15.50;99.90
9375;DHT22;4727;51.202;6.344;2023-07-30T00:49:52;15.40;99.90
9375;DHT22;4727;51.202;6.344;2023-07-30T00:52:20;15.50;99.90
9375;DHT22;4727;51.202;6.344;2023-07-30T00:54:47;15.50;99.90
9375;DHT22;4727;51.202;6.344;2023-07-30T00:57:14;15.40;99.90
9375;DHT22;4727;51.202;6.344;2023-07-30T00:59:40;15.40;99.90
9375;DHT22;4727;51.202;6.344;2023-07-30T01:02:06;15.40;99.90
9375;DHT22;4727;51.202;6.344;2023-07-30T01:04:32;15.40;99.90
9375;DHT22;4727;51.202;6.344;2023-07-30T01:06:58;15.60;99.90
9375;DHT22;4727;51.202;6.344;2023-07-30T01:09:23;15.30;99.90
9375;DHT22;4727;51.202;6.344;2023-07-30T01:11:50;15.30;99.90
9375;DHT22;4727;51.202;6.344;2023-07-30T01:14:16;15.50;99.90
9375;DHT22;4727;51.202;6.344;2023-07-30T01:16:44;15.40;99.90
9375;DHT22;4727;51.202;6.344;2023-07-30T01:19:10;15.30;99.90
9375;DHT22;4727;51.202;6.344;2023-07-30T01:21:36;15.40;99.90
9375;DHT22;4727;51.202;6.344;2023-07-30T01:24:02;15.40;99.90
9375;DHT22;4727;51.202;6.344;2023-07-30T01:26:35;15.40;99.90
9375;DHT22;4727;51.202;6.344;2023-07-30T01:29:03;15.30;99.90
9375;DHT22;4727;51.202;6.344;2023-07-30T01:31:34;15.30;99.90
9375;DHT22;4727;51.202;6.344;2023-07-30T01:34:02;15.30;99.90
9375;DHT22;4727;51.202;6.344;2023-07-30T01:36:28;15.30;99.90
9375;DHT22;4727;51.202;6.344;2023-07-30T01:38:56;15.20;99.90
9375;DHT22;4727;51.202;6.344;2023-07-30T01:41:22;15.20;99.90
9375;DHT22;4727;51.202;6.344;2023-07-30T01:43:49;15.20;99.90
9375;DHT22;4727;51.202;6.344;2023-07-30T01:46:15;15.20;99.90
9375;DHT22;4727;51.202;6.344;2023-07-30T01:48:40;15.10;99.90
9375;DHT22;4727;51.202;6.344;2023-07-30T01:51:06;15.10;99.90
9375;DHT22;4727;51.202;6.344;2023-07-30T01:53:32;15.20;99.90
9375;DHT22;4727;51.202;6.344;2023-07-30T01:55:57;15.10;99.90
9375;DHT22;4727;51.202;6.344;2023-07-30T01:58:23;15.20;99.90
9375;DHT22;4727;51.202;6.344;2023-07-30T02:00:48;15.10;99.90
9375;DHT22;4727;51.202;6.344;2023-07-30T02:03:14;15.20;99.90
9375;DHT22;4727;51.202;6.344;2023-07-30T02:05:39;15.30;99.90
9375;DHT22;4727;51.202;6.344;2023-07-30T02:08:05;15.10;99.90
9375;DHT22;4727;51.202;6.344;2023-07-30T02:10:30;15.10;99.90
9375;DHT22;4727;51.202;6.344;2023-07-30T02:12:56;15.10;99.90
9375;DHT22;4727;51.202;6.344;2023-07-30T02:15:22;15.00;99.90
9375;DHT22;4727;51.202;6.344;2023-07-30T02:17:47;15.10;99.90
9375;DHT22;4727;51.202;6.344;2023-07-30T02:20:13;15.40;99.90
9375;DHT22;4727;51.202;6.344;2023-07-30T02:22:38;15.40;99.90
9375;DHT22;4727;51.202;6.344;2023-07-30T02:25:04;15.10;99.90
9375;DHT22;4727;51.202;6.344;2023-07-30T02:27:30;15.00;99.90
9375;DHT22;4727;51.202;6.344;2023-07-30T02:29:55;14.90;99.90
9375;DHT22;4727;51.202;6.344;2023-07-30T02:32:21;14.90;99.90
9375;DHT22;4727;51.202;6.344;2023-07-30T02:34:47;14.90;99.90
9375;DHT22;4727;51.202;6.344;2023-07-30T02:37:12;14.90;99.90
9375;DHT22;4727;51.202;6.344;2023-07-30T02:39:38;15.00;99.90
9375;DHT22;4727;51.202;6.344;2023-07-30T02:42:04;14.90;99.90
9375;DHT22;4727;51.202;6.344;2023-07-30T02:44:30;14.90;99.90
9375;DHT22;4727;51.202;6.344;2023-07-30T02:49:21;14.80;99.90
9375;DHT22;4727;51.202;6.344;2023-07-30T02:51:47;15.00;99.90
9375;DHT22;4727;51.202;6.344;2023-07-30T02:54:14;14.80;99.90
9375;DHT22;4727;51.202;6.344;2023-07-30T02:56:42;14.70;99.90
9375;DHT22;4727;51.202;6.344;2023-07-30T02:59:08;14.60;99.90
9375;DHT22;4727;51.202;6.344;2023-07-30T03:01:34;14.80;99.90
9375;DHT22;4727;51.202;6.344;2023-07-30T03:03:59;15.30;99.90
9375;DHT22;4727;51.202;6.344;2023-07-30T03:06:25;15.00;99.90
9375;DHT22;4727;51.202;6.344;2023-07-30T03:08:50;14.90;99.90
9375;DHT22;4727;51.202;6.344;2023-07-30T03:11:16;15.30;99.90
9375;DHT22;4727;51.202;6.344;2023-07-30T03:13:41;15.40;99.90
9375;DHT22;4727;51.202;6.344;2023-07-30T03:16:07;14.20;99.90
9375;DHT22;4727;51.202;6.344;2023-07-30T03:21:00;14.70;99.90
9375;DHT22;4727;51.202;6.344;2023-07-30T03:25:51;14.70;99.90
9375;DHT22;4727;51.202;6.344;2023-07-30T03:28:17;14.60;99.90
9375;DHT22;4727;51.202;6.344;2023-07-30T03:30:42;15.30;99.90
9375;DHT22;4727;51.202;6.344;2023-07-30T03:33:08;14.80;99.90
9375;DHT22;4727;51.202;6.344;2023-07-30T03:35:33;14.90;99.90
9375;DHT22;4727;51.202;6.344;2023-07-30T03:37:59;16.40;99.90
9375;DHT22;4727;51.202;6.344;2023-07-30T03:40:25;15.50;99.90
9375;DHT22;4727;51.202;6.344;2023-07-30T03:42:51;14.90;99.90
9375;DHT22;4727;51.202;6.344;2023-07-30T03:45:16;14.90;99.90
9375;DHT22;4727;51.202;6.344;2023-07-30T03:47:42;14.90;99.90
9375;DHT22;4727;51.202;6.344;2023-07-30T03:50:08;15.00;99.90
9375;DHT22;4727;51.202;6.344;2023-07-30T03:52:33;15.00;99.90
9375;DHT22;4727;51.202;6.344;2023-07-30T03:54:59;15.60;99.90
9375;DHT22;4727;51.202;6.344;2023-07-30T03:57:24;15.60;99.90
9375;DHT22;4727;51.202;6.344;2023-07-30T03:59:50;15.00;99.90
9375;DHT22;4727;51.202;6.344;2023-07-30T04:02:16;15.00;99.90
9375;DHT22;4727;51.202;6.344;2023-07-30T04:04:42;15.50;99.90
9375;DHT22;4727;51.202;6.344;2023-07-30T04:07:13;16.20;99.90
9375;DHT22;4727;51.202;6.344;2023-07-30T04:09:39;15.70;99.90
9375;DHT22;4727;51.202;6.344;2023-07-30T04:12:05;15.20;99.90
9375;DHT22;4727;51.202;6.344;2023-07-30T04:14:31;15.20;99.90
9375;DHT22;4727;51.202;6.344;2023-07-30T04:16:56;15.90;99.90
9375;DHT22;4727;51.202;6.344;2023-07-30T04:19:22;15.80;99.90
9375;DHT22;4727;51.202;6.344;2023-07-30T04:21:47;15.30;99.90
9375;DHT22;4727;51.202;6.344;2023-07-30T04:24:13;15.70;99.90
9375;DHT22;4727;51.202;6.344;2023-07-30T04:26:38;15.30;99.90
9375;DHT22;4727;51.202;6.344;2023-07-30T04:29:04;15.30;99.90
9375;DHT22;4727;51.202;6.344;2023-07-30T04:31:30;15.60;99.90
9375;DHT22;4727;51.202;6.344;2023-07-30T04:33:57;15.60;99.90
9375;DHT22;4727;51.202;6.344;2023-07-30T04:36:23;16.50;99.90
9375;DHT22;4727;51.202;6.344;2023-07-30T04:38:49;15.80;99.90
9375;DHT22;4727;51.202;6.344;2023-07-30T04:41:14;15.70;99.90
9375;DHT22;4727;51.202;6.344;2023-07-30T04:43:40;15.60;99.90
9375;DHT22;4727;51.202;6.344;2023-07-30T04:46:05;15.40;99.90
9375;DHT22;4727;51.202;6.344;2023-07-30T04:48:31;15.50;99.90
9375;DHT22;4727;51.202;6.344;2023-07-30T04:50:56;15.40;99.90
9375;DHT22;4727;51.202;6.344;2023-07-30T04:53:22;15.50;99.90
9375;DHT22;4727;51.202;6.344;2023-07-30T04:55:47;15.90;99.90
9375;DHT22;4727;51.202;6.344;2023-07-30T04:58:13;16.80;99.90
9375;DHT22;4727;51.202;6.344;2023-07-30T05:00:38;15.10;99.90
9375;DHT22;4727;51.202;6.344;2023-07-30T05:03:04;15.10;99.90
9375;DHT22;4727;51.202;6.344;2023-07-30T05:05:29;15.50;99.90
9375;DHT22;4727;51.202;6.344;2023-07-30T05:07:55;15.60;99.90
9375;DHT22;4727;51.202;6.344;2023-07-30T05:10:21;16.00;99.90
9375;DHT22;4727;51.202;6.344;2023-07-30T05:12:46;15.90;99.90
9375;DHT22;4727;51.202;6.344;2023-07-30T05:15:12;16.10;99.90
9375;DHT22;4727;51.202;6.344;2023-07-30T05:17:38;15.60;99.90
9375;DHT22;4727;51.202;6.344;2023-07-30T05:20:03;15.30;99.90
9375;DHT22;4727;51.202;6.344;2023-07-30T05:22:29;15.10;99.90
9375;DHT22;4727;51.202;6.344;2023-07-30T05:24:55;15.10;99.90
9375;DHT22;4727;51.202;6.344;2023-07-30T05:27:29;15.10;99.90
9375;DHT22;4727;51.202;6.344;2023-07-30T05:30:07;15.40;99.90
9375;DHT22;4727;51.202;6.344;2023-07-30T05:32:39;15.00;99.90
9375;DHT22;4727;51.202;6.344;2023-07-30T05:35:05;15.60;99.90
9375;DHT22;4727;51.202;6.344;2023-07-30T05:37:30;15.10;99.90
9375;DHT22;4727;51.202;6.344;2023-07-30T05:39:56;15.60;99.90
9375;DHT22;4727;51.202;6.344;2023-07-30T05:42:22;15.20;99.90
9375;DHT22;4727;51.202;6.344;2023-07-30T05:44:47;14.90;99.90
9375;DHT22;4727;51.202;6.344;2023-07-30T05:47:13;15.10;99.90
9375;DHT22;4727;51.202;6.344;2023-07-30T05:49:38;15.10;99.90
9375;DHT22;4727;51.202;6.344;2023-07-30T05:52:05;15.60;99.90
9375;DHT22;4727;51.202;6.344;2023-07-30T05:54:31;15.30;99.90
9375;DHT22;4727;51.202;6.344;2023-07-30T05:56:56;15.00;99.90
9375;DHT22;4727;51.202;6.344;2023-07-30T05:59:22;15.60;99.90
9375;DHT22;4727;51.202;6.344;2023-07-30T06:01:47;15.30;99.90
9375;DHT22;4727;51.202;6.344;2023-07-30T06:04:13;15.60;99.90
9375;DHT22;4727;51.202;6.344;2023-07-30T06:06:38;16.70;99.90
9375;DHT22;4727;51.202;6.344;2023-07-30T06:09:04;15.80;99.90
9375;DHT22;4727;51.202;6.344;2023-07-30T06:11:30;15.00;99.90
9375;DHT22;4727;51.202;6.344;2023-07-30T06:13:55;15.60;99.90
9375;DHT22;4727;51.202;6.344;2023-07-30T06:16:21;15.70;99.90
9375;DHT22;4727;51.202;6.344;2023-07-30T06:18:47;16.00;99.90
9375;DHT22;4727;51.202;6.344;2023-07-30T06:21:12;15.20;99.90
9375;DHT22;4727;51.202;6.344;2023-07-30T06:23:38;15.30;99.90
9375;DHT22;4727;51.202;6.344;2023-07-30T06:26:03;15.50;99.90
9375;DHT22;4727;51.202;6.344;2023-07-30T06:28:29;15.20;99.90
9375;DHT22;4727;51.202;6.344;2023-07-30T06:30:55;15.90;99.90
9375;DHT22;4727;51.202;6.344;2023-07-30T06:33:20;15.70;99.90
9375;DHT22;4727;51.202;6.344;2023-07-30T06:35:46;15.80;99.90
9375;DHT22;4727;51.202;6.344;2023-07-30T06:38:11;15.90;99.90
9375;DHT22;4727;51.202;6.344;2023-07-30T06:40:37;17.10;99.90
9375;DHT22;4727;51.202;6.344;2023-07-30T06:43:03;17.00;99.90
9375;DHT22;4727;51.202;6.344;2023-07-30T06:45:28;17.00;99.90
9375;DHT22;4727;51.202;6.344;2023-07-30T06:47:54;15.80;99.90
9375;DHT22;4727;51.202;6.344;2023-07-30T06:50:19;16.10;99.90
9375;DHT22;4727;51.202;6.344;2023-07-30T06:52:45;16.00;99.90
9375;DHT22;4727;51.202;6.344;2023-07-30T06:55:10;16.70;99.90
9375;DHT22;4727;51.202;6.344;2023-07-30T06:57:36;16.30;99.90
9375;DHT22;4727;51.202;6.344;2023-07-30T07:00:02;16.00;99.90
9375;DHT22;4727;51.202;6.344;2023-07-30T07:02:28;15.90;99.90
9375;DHT22;4727;51.202;6.344;2023-07-30T07:04:54;16.50;99.90
9375;DHT22;4727;51.202;6.344;2023-07-30T07:07:20;16.10;99.90
9375;DHT22;4727;51.202;6.344;2023-07-30T07:09:46;16.50;99.90
9375;DHT22;4727;51.202;6.344;2023-07-30T07:12:12;16.30;99.90
9375;DHT22;4727;51.202;6.344;2023-07-30T07:14:37;16.10;99.90
9375;DHT22;4727;51.202;6.344;2023-07-30T07:17:04;16.10;99.90
9375;DHT22;4727;51.202;6.344;2023-07-30T07:19:30;16.10;99.90
9375;DHT22;4727;51.202;6.344;2023-07-30T07:34:06;16.10;99.90
9375;DHT22;4727;51.202;6.344;2023-07-30T07:36:33;16.40;99.90
9375;DHT22;4727;51.202;6.344;2023-07-30T07:38:58;16.10;99.90
9375;DHT22;4727;51.202;6.344;2023-07-30T07:41:24;16.20;99.90
9375;DHT22;4727;51.202;6.344;2023-07-30T07:43:51;16.20;99.90
9375;DHT22;4727;51.202;6.344;2023-07-30T07:46:18;16.20;99.90
9375;DHT22;4727;51.202;6.344;2023-07-30T07:48:44;15.60;99.90
9375;DHT22;4727;51.202;6.344;2023-07-30T07:51:10;16.20;99.90
9375;DHT22;4727;51.202;6.344;2023-07-30T07:53:36;16.20;99.90
9375;DHT22;4727;51.202;6.344;2023-07-30T07:56:03;16.30;99.90
9375;DHT22;4727;51.202;6.344;2023-07-30T07:58:29;16.20;99.90
9375;DHT22;4727;51.202;6.344;2023-07-30T08:00:55;16.20;99.90
9375;DHT22;4727;51.202;6.344;2023-07-30T08:03:21;16.40;99.90
9375;DHT22;4727;51.202;6.344;2023-07-30T08:05:48;16.30;99.90
9375;DHT22;4727;51.202;6.344;2023-07-30T08:08:14;16.30;99.90
9375;DHT22;4727;51.202;6.344;2023-07-30T08:10:39;16.30;99.90
9375;DHT22;4727;51.202;6.344;2023-07-30T08:13:08;16.30;99.90
9375;DHT22;4727;51.202;6.344;2023-07-30T08:15:33;16.40;99.90
9375;DHT22;4727;51.202;6.344;2023-07-30T08:17:59;16.40;99.90
9375;DHT22;4727;51.202;6.344;2023-07-30T08:20:24;16.40;99.90
9375;DHT22;4727;51.202;6.344;2023-07-30T08:22:50;16.50;99.90
9375;DHT22;4727;51.202;6.344;2023-07-30T08:25:16;16.40;99.90
9375;DHT22;4727;51.202;6.344;2023-07-30T08:27:41;16.50;99.90
9375;DHT22;4727;51.202;6.344;2023-07-30T08:30:07;16.50;99.90
9375;DHT22;4727;51.202;6.344;2023-07-30T08:32:33;16.50;99.90
9375;DHT22;4727;51.202;6.344;2023-07-30T08:34:59;16.50;99.90
9375;DHT22;4727;51.202;6.344;2023-07-30T08:37:25;16.50;99.90
9375;DHT22;4727;51.202;6.344;2023-07-30T08:39:51;16.40;99.90
9375;DHT22;4727;51.202;6.344;2023-07-30T08:42:17;16.50;99.90
9375;DHT22;4727;51.202;6.344;2023-07-30T08:44:43;16.60;99.90
9375;DHT22;4727;51.202;6.344;2023-07-30T08:47:08;16.80;99.90
9375;DHT22;4727;51.202;6.344;2023-07-30T08:49:34;16.70;99.90
9375;DHT22;4727;51.202;6.344;2023-07-30T08:52:02;16.60;99.90
9375;DHT22;4727;51.202;6.344;2023-07-30T08:54:30;16.70;99.90
9375;DHT22;4727;51.202;6.344;2023-07-30T08:56:57;16.70;99.90
9375;DHT22;4727;51.202;6.344;2023-07-30T08:59:24;16.80;99.90
9375;DHT22;4727;51.202;6.344;2023-07-30T09:01:54;16.70;99.90
9375;DHT22;4727;51.202;6.344;2023-07-30T09:04:20;16.90;99.90
9375;DHT22;4727;51.202;6.344;2023-07-30T09:06:49;17.00;99.90
9375;DHT22;4727;51.202;6.344;2023-07-30T09:09:15;17.20;99.90
9375;DHT22;4727;51.202;6.344;2023-07-30T09:11:41;17.20;99.90
9375;DHT22;4727;51.202;6.344;2023-07-30T09:14:07;17.40;99.90
9375;DHT22;4727;51.202;6.344;2023-07-30T09:16:34;17.50;99.90
9375;DHT22;4727;51.202;6.344;2023-07-30T09:19:00;17.50;99.90
9375;DHT22;4727;51.202;6.344;2023-07-30T09:21:33;17.50;99.90
9375;DHT22;4727;51.202;6.344;2023-07-30T09:24:02;17.70;99.90
9375;DHT22;4727;51.202;6.344;2023-07-30T09:26:42;17.80;99.90
9375;DHT22;4727;51.202;6.344;2023-07-30T09:29:09;18.00;99.90
9375;DHT22;4727;51.202;6.344;2023-07-30T09:31:52;18.30;99.90
9375;DHT22;4727;51.202;6.344;2023-07-30T09:34:20;18.10;99.90
9375;DHT22;4727;51.202;6.344;2023-07-30T09:36:46;18.10;99.90
9375;DHT22;4727;51.202;6.344;2023-07-30T09:39:23;18.10;99.90
9375;DHT22;4727;51.202;6.344;2023-07-30T09:41:51;18.30;99.90
9375;DHT22;4727;51.202;6.344;2023-07-30T09:44:18;18.50;99.90
9375;DHT22;4727;51.202;6.344;2023-07-30T09:46:46;18.80;99.90
9375;DHT22;4727;51.202;6.344;2023-07-30T09:49:11;18.90;99.90
9375;DHT22;4727;51.202;6.344;2023-07-30T09:51:38;19.00;99.90
9375;DHT22;4727;51.202;6.344;2023-07-30T09:54:06;19.10;99.90
9375;DHT22;4727;51.202;6.344;2023-07-30T09:56:33;19.20;99.90
9375;DHT22;4727;51.202;6.344;2023-07-30T09:58:59;18.80;99.90
9375;DHT22;4727;51.202;6.344;2023-07-30T10:01:26;18.80;99.90
9375;DHT22;4727;51.202;6.344;2023-07-30T10:03:56;18.80;99.90
9375;DHT22;4727;51.202;6.344;2023-07-30T10:06:23;19.10;99.90
9375;DHT22;4727;51.202;6.344;2023-07-30T10:08:51;19.10;99.90
9375;DHT22;4727;51.202;6.344;2023-07-30T10:11:19;19.30;99.90
9375;DHT22;4727;51.202;6.344;2023-07-30T10:13:46;19.30;99.90
9375;DHT22;4727;51.202;6.344;2023-07-30T10:16:12;19.60;99.90
9375;DHT22;4727;51.202;6.344;2023-07-30T10:18:39;19.40;99.90
9375;DHT22;4727;51.202;6.344;2023-07-30T10:21:08;19.70;99.90
9375;DHT22;4727;51.202;6.344;2023-07-30T10:23:46;19.50;99.90
9375;DHT22;4727;51.202;6.344;2023-07-30T10:26:12;19.30;99.90
9375;DHT22;4727;51.202;6.344;2023-07-30T10:28:38;19.20;99.90
9375;DHT22;4727;51.202;6.344;2023-07-30T10:31:09;19.40;99.90
9375;DHT22;4727;51.202;6.344;2023-07-30T10:33:50;19.30;99.90
9375;DHT22;4727;51.202;6.344;2023-07-30T10:36:31;19.30;99.90
9375;DHT22;4727;51.202;6.344;2023-07-30T10:38:57;19.30;99.90
9375;DHT22;4727;51.202;6.344;2023-07-30T10:41:22;19.40;99.90
9375;DHT22;4727;51.202;6.344;2023-07-30T10:43:50;19.40;99.90
9375;DHT22;4727;51.202;6.344;2023-07-30T10:46:17;19.40;99.90
9375;DHT22;4727;51.202;6.344;2023-07-30T10:48:45;19.60;99.90
9375;DHT22;4727;51.202;6.344;2023-07-30T10:51:16;19.50;99.90
9375;DHT22;4727;51.202;6.344;2023-07-30T10:53:46;19.60;99.90
9375;DHT22;4727;51.202;6.344;2023-07-30T10:56:13;19.50;99.90
9375;DHT22;4727;51.202;6.344;2023-07-30T10:58:40;19.60;99.90
9375;DHT22;4727;51.202;6.344;2023-07-30T11:01:08;19.70;99.90
9375;DHT22;4727;51.202;6.344;2023-07-30T11:03:35;19.80;99.90
9375;DHT22;4727;51.202;6.344;2023-07-30T11:06:02;19.90;99.90
9375;DHT22;4727;51.202;6.344;2023-07-30T11:08:38;19.80;99.90
9375;DHT22;4727;51.202;6.344;2023-07-30T11:11:05;19.80;99.90
9375;DHT22;4727;51.202;6.344;2023-07-30T11:13:45;19.80;99.90
9375;DHT22;4727;51.202;6.344;2023-07-30T11:16:14;19.90;99.90
9375;DHT22;4727;51.202;6.344;2023-07-30T11:18:41;19.90;99.90
9375;DHT22;4727;51.202;6.344;2023-07-30T11:23:35;19.70;99.90
9375;DHT22;4727;51.202;6.344;2023-07-30T11:26:03;19.70;99.90
9375;DHT22;4727;51.202;6.344;2023-07-30T11:28:33;19.40;99.90
9375;DHT22;4727;51.202;6.344;2023-07-30T11:31:00;19.40;99.90
9375;DHT22;4727;51.202;6.344;2023-07-30T11:33:27;19.40;99.90
9375;DHT22;4727;51.202;6.344;2023-07-30T11:35:57;19.50;99.90
9375;DHT22;4727;51.202;6.344;2023-07-30T11:38:24;19.50;99.90
9375;DHT22;4727;51.202;6.344;2023-07-30T11:40:50;19.30;99.90
9375;DHT22;4727;51.202;6.344;2023-07-30T11:43:16;19.30;99.90
9375;DHT22;4727;51.202;6.344;2023-07-30T11:45:42;19.30;99.90
9375;DHT22;4727;51.202;6.344;2023-07-30T11:48:09;19.20;99.90
9375;DHT22;4727;51.202;6.344;2023-07-30T11:50:49;19.10;99.90
9375;DHT22;4727;51.202;6.344;2023-07-30T11:53:16;18.90;99.90
9375;DHT22;4727;51.202;6.344;2023-07-30T11:55:43;18.50;99.90
9375;DHT22;4727;51.202;6.344;2023-07-30T11:58:10;18.50;99.90
9375;DHT22;4727;51.202;6.344;2023-07-30T12:00:40;18.30;99.90
9375;DHT22;4727;51.202;6.344;2023-07-30T12:03:09;18.40;99.90
9375;DHT22;4727;51.202;6.344;2023-07-30T12:05:37;18.40;99.90
9375;DHT22;4727;51.202;6.344;2023-07-30T12:08:04;18.40;99.90
9375;DHT22;4727;51.202;6.344;2023-07-30T12:10:46;18.30;99.90
9375;DHT22;4727;51.202;6.344;2023-07-30T12:13:22;18.30;99.90
9375;DHT22;4727;51.202;6.344;2023-07-30T12:15:53;18.20;99.90
9375;DHT22;4727;51.202;6.344;2023-07-30T12:18:20;18.20;99.90
9375;DHT22;4727;51.202;6.344;2023-07-30T12:20:49;18.40;99.90
9375;DHT22;4727;51.202;6.344;2023-07-30T12:23:19;18.50;99.90
9375;DHT22;4727;51.202;6.344;2023-07-30T12:25:45;18.50;99.90
9375;DHT22;4727;51.202;6.344;2023-07-30T12:28:11;18.60;99.90
9375;DHT22;4727;51.202;6.344;2023-07-30T12:30:37;18.70;99.90
9375;DHT22;4727;51.202;6.344;2023-07-30T12:33:03;18.60;99.90
9375;DHT22;4727;51.202;6.344;2023-07-30T12:35:30;18.70;99.90
9375;DHT22;4727;51.202;6.344;2023-07-30T12:37:55;18.60;99.90
9375;DHT22;4727;51.202;6.344;2023-07-30T12:40:21;18.70;99.90
9375;DHT22;4727;51.202;6.344;2023-07-30T12:42:47;18.60;99.90
9375;DHT22;4727;51.202;6.344;2023-07-30T12:45:12;18.60;99.90
9375;DHT22;4727;51.202;6.344;2023-07-30T12:47:38;18.90;99.90
9375;DHT22;4727;51.202;6.344;2023-07-30T12:50:04;19.20;99.90
9375;DHT22;4727;51.202;6.344;2023-07-30T12:52:32;19.50;99.90
9375;DHT22;4727;51.202;6.344;2023-07-30T12:54:58;19.80;99.90
9375;DHT22;4727;51.202;6.344;2023-07-30T12:57:24;20.00;99.90
9375;DHT22;4727;51.202;6.344;2023-07-30T12:59:49;20.30;99.90
9375;DHT22;4727;51.202;6.344;2023-07-30T13:04:41;20.40;99.90
9375;DHT22;4727;51.202;6.344;2023-07-30T13:07:06;20.50;99.90
9375;DHT22;4727;51.202;6.344;2023-07-30T13:09:32;20.70;99.90
9375;DHT22;4727;51.202;6.344;2023-07-30T13:11:58;20.80;99.90
9375;DHT22;4727;51.202;6.344;2023-07-30T13:14:23;21.10;99.90
9375;DHT22;4727;51.202;6.344;2023-07-30T13:16:49;21.30;99.90
9375;DHT22;4727;51.202;6.344;2023-07-30T13:19:15;21.40;99.90
9375;DHT22;4727;51.202;6.344;2023-07-30T13:21:40;21.40;99.90
9375;DHT22;4727;51.202;6.344;2023-07-30T13:24:06;21.30;99.90
9375;DHT22;4727;51.202;6.344;2023-07-30T13:26:31;21.10;99.90
9375;DHT22;4727;51.202;6.344;2023-07-30T13:28:57;20.90;99.90
9375;DHT22;4727;51.202;6.344;2023-07-30T13:31:22;20.70;99.90
9375;DHT22;4727;51.202;6.344;2023-07-30T13:33:48;20.50;99.90
9375;DHT22;4727;51.202;6.344;2023-07-30T13:36:14;20.40;99.90
9375;DHT22;4727;51.202;6.344;2023-07-30T13:38:40;20.40;99.90
9375;DHT22;4727;51.202;6.344;2023-07-30T13:41:06;20.40;99.90
9375;DHT22;4727;51.202;6.344;2023-07-30T13:43:32;20.30;99.90
9375;DHT22;4727;51.202;6.344;2023-07-30T13:45:58;20.50;99.90
9375;DHT22;4727;51.202;6.344;2023-07-30T13:48:26;20.90;99.90
9375;DHT22;4727;51.202;6.344;2023-07-30T13:50:52;21.20;99.90
9375;DHT22;4727;51.202;6.344;2023-07-30T13:53:18;21.10;99.90
9375;DHT22;4727;51.202;6.344;2023-07-30T13:55:44;21.20;99.90
9375;DHT22;4727;51.202;6.344;2023-07-30T13:58:10;21.10;99.90
9375;DHT22;4727;51.202;6.344;2023-07-30T14:00:35;21.10;99.90
9375;DHT22;4727;51.202;6.344;2023-07-30T14:03:01;20.90;99.90
9375;DHT22;4727;51.202;6.344;2023-07-30T14:05:27;20.90;99.90
9375;DHT22;4727;51.202;6.344;2023-07-30T14:07:54;21.20;99.90
9375;DHT22;4727;51.202;6.344;2023-07-30T14:10:22;21.50;99.90
9375;DHT22;4727;51.202;6.344;2023-07-30T14:12:48;21.50;99.90
9375;DHT22;4727;51.202;6.344;2023-07-30T14:15:14;21.90;99.90
9375;DHT22;4727;51.202;6.344;2023-07-30T14:17:40;21.90;99.90
9375;DHT22;4727;51.202;6.344;2023-07-30T14:20:06;21.90;99.90
9375;DHT22;4727;51.202;6.344;2023-07-30T14:22:33;21.90;99.90
9375;DHT22;4727;51.202;6.344;2023-07-30T14:24:58;21.80;99.90
9375;DHT22;4727;51.202;6.344;2023-07-30T14:27:24;21.60;99.90
9375;DHT22;4727;51.202;6.344;2023-07-30T14:29:50;21.60;99.90
9375;DHT22;4727;51.202;6.344;2023-07-30T14:32:16;21.90;99.90
9375;DHT22;4727;51.202;6.344;2023-07-30T14:34:42;22.00;99.90
9375;DHT22;4727;51.202;6.344;2023-07-30T14:37:08;22.20;99.90
9375;DHT22;4727;51.202;6.344;2023-07-30T14:39:33;22.10;99.90
9375;DHT22;4727;51.202;6.344;2023-07-30T14:41:59;22.00;99.90
9375;DHT22;4727;51.202;6.344;2023-07-30T14:44:24;22.20;99.90
9375;DHT22;4727;51.202;6.344;2023-07-30T14:46:50;22.60;99.90
9375;DHT22;4727;51.202;6.344;2023-07-30T14:49:16;22.60;99.90
9375;DHT22;4727;51.202;6.344;2023-07-30T14:51:41;22.60;99.90
9375;DHT22;4727;51.202;6.344;2023-07-30T14:54:07;22.30;99.90
9375;DHT22;4727;51.202;6.344;2023-07-30T14:56:33;22.10;99.90
9375;DHT22;4727;51.202;6.344;2023-07-30T14:58:59;21.90;99.90
9375;DHT22;4727;51.202;6.344;2023-07-30T15:01:28;21.90;99.90
9375;DHT22;4727;51.202;6.344;2023-07-30T15:03:54;21.80;99.90
9375;DHT22;4727;51.202;6.344;2023-07-30T15:06:20;21.60;99.90
9375;DHT22;4727;51.202;6.344;2023-07-30T15:08:46;21.70;99.90
9375;DHT22;4727;51.202;6.344;2023-07-30T15:11:12;22.00;99.90
9375;DHT22;4727;51.202;6.344;2023-07-30T15:13:39;22.10;99.90
9375;DHT22;4727;51.202;6.344;2023-07-30T15:16:05;22.00;99.90
9375;DHT22;4727;51.202;6.344;2023-07-30T15:18:31;22.10;99.90
9375;DHT22;4727;51.202;6.344;2023-07-30T15:20:58;22.20;99.90
9375;DHT22;4727;51.202;6.344;2023-07-30T15:23:24;22.20;99.90
9375;DHT22;4727;51.202;6.344;2023-07-30T15:25:49;22.40;99.90
9375;DHT22;4727;51.202;6.344;2023-07-30T15:28:16;22.60;99.90
9375;DHT22;4727;51.202;6.344;2023-07-30T15:30:42;22.80;99.90
9375;DHT22;4727;51.202;6.344;2023-07-30T15:33:09;22.80;99.90
9375;DHT22;4727;51.202;6.344;2023-07-30T15:35:35;22.90;99.90
9375;DHT22;4727;51.202;6.344;2023-07-30T15:38:01;22.80;99.90
9375;DHT22;4727;51.202;6.344;2023-07-30T15:40:26;22.70;99.90
9375;DHT22;4727;51.202;6.344;2023-07-30T15:42:52;22.80;99.90
9375;DHT22;4727;51.202;6.344;2023-07-30T15:45:17;22.80;99.90
9375;DHT22;4727;51.202;6.344;2023-07-30T15:47:43;22.90;99.90
9375;DHT22;4727;51.202;6.344;2023-07-30T15:50:09;22.80;99.90
9375;DHT22;4727;51.202;6.344;2023-07-30T15:52:35;22.70;99.90
9375;DHT22;4727;51.202;6.344;2023-07-30T15:55:01;22.60;99.90
9375;DHT22;4727;51.202;6.344;2023-07-30T15:57:26;22.60;99.90
9375;DHT22;4727;51.202;6.344;2023-07-30T15:59:52;22.80;99.90
9375;DHT22;4727;51.202;6.344;2023-07-30T16:02:17;23.00;99.90
9375;DHT22;4727;51.202;6.344;2023-07-30T16:04:43;23.00;99.90
9375;DHT22;4727;51.202;6.344;2023-07-30T16:07:09;23.00;99.90
9375;DHT22;4727;51.202;6.344;2023-07-30T16:09:37;23.00;99.90
9375;DHT22;4727;51.202;6.344;2023-07-30T16:12:03;22.90;99.90
9375;DHT22;4727;51.202;6.344;2023-07-30T16:14:29;22.80;99.90
9375;DHT22;4727;51.202;6.344;2023-07-30T16:16:55;22.60;99.90
9375;DHT22;4727;51.202;6.344;2023-07-30T16:19:20;22.50;99.90
9375;DHT22;4727;51.202;6.344;2023-07-30T16:21:46;22.40;99.90